Time;durP1;ratioP1;P1;durP2;ratioP2;P2;SDS_P1;SDS_P2;PMS_P1;PMS_P2;Temp;Humidity;BMP_temperature;BMP_pressure;BME280_temperature;BME280_humidity;BME280_pressure;Samples;Min_cycle;Max_cycle;Signal;HPM_P1;HPM_P2
2023/03/01 00:00:08;;;;;;;4.90;4.50;;;;;;;5.71;100.00;62583.16;5025860;28;20227;-81
2023/03/01 00:02:36;;;;;;;6.65;4.38;;;;;;;5.67;100.00;62584.06;5012083;28;20223;-81
2023/03/01 00:05:04;;;;;;;4.50;4.13;;;;;;;5.67;100.00;62584.06;5031762;28;20261;-82
2023/03/01 00:07:32;;;;;;;4.50;4.18;;;;;;;5.79;100.00;62591.38;5033590;28;20222;-81
2023/03/01 00:09:59;;;;;;;8.10;5.20;;;;;;;5.76;100.00;62588.28;5032093;28;20203;-82
2023/03/01 00:12:27;;;;;;;6.40;5.75;;;;;;;5.41;100.00;62552.75;5032208;28;20238;-82
2023/03/01 00:14:54;;;;;;;6.10;5.50;;;;;;;5.37;100.00;62548.63;5029098;28;20519;-81
2023/03/01 00:17:21;;;;;;;6.88;5.57;;;;;;;5.17;100.00;62528.03;5031151;28;20246;-81
2023/03/01 00:19:48;;;;;;;7.43;6.68;;;;;;;5.48;100.00;62559.44;5029038;28;20209;-80
2023/03/01 00:22:15;;;;;;;10.15;7.82;;;;;;;5.48;100.00;62559.97;5031318;28;20226;-80
2023/03/01 00:24:43;;;;;;;12.07;8.85;;;;;;;5.42;100.00;62556.28;5030229;28;20198;-82
2023/03/01 00:27:10;;;;;;;12.50;9.32;;;;;;;5.31;100.00;62541.94;5020433;28;20234;-80
2023/03/01 00:29:37;;;;;;;11.20;9.30;;;;;;;5.33;100.00;62547.03;5029773;28;20259;-81
2023/03/01 00:32:04;;;;;;;13.25;9.98;;;;;;;5.31;100.00;62541.94;5010630;28;20235;-79
2023/03/01 00:34:31;;;;;;;12.55;10.25;;;;;;;5.29;100.00;62542.91;5012947;28;20249;-81
2023/03/01 00:37:04;;;;;;;9.63;7.95;;;;;;;5.43;100.00;62554.28;5020123;28;20222;-80
2023/03/01 00:39:32;;;;;;;4.57;4.28;;;;;;;5.43;100.00;62554.28;5031413;28;20203;-81
2023/03/01 00:42:00;;;;;;;3.20;3.00;;;;;;;5.62;100.00;62584.50;5032018;28;20228;-80
2023/03/01 00:44:28;;;;;;;2.85;2.65;;;;;;;5.67;100.00;62577.00;5030431;28;20201;-82
2023/03/01 00:46:55;;;;;;;2.17;2.08;;;;;;;5.67;100.00;62579.00;5027871;28;20408;-82
2023/03/01 00:49:24;;;;;;;2.35;2.20;;;;;;;5.93;100.00;62605.31;5019153;28;20203;-81
2023/03/01 00:51:51;;;;;;;2.00;1.90;;;;;;;6.06;100.00;62623.78;5009925;28;20424;-81
2023/03/01 00:54:18;;;;;;;2.22;2.03;;;;;;;6.15;100.00;62625.44;5014123;28;20199;-81
2023/03/01 00:56:44;;;;;;;1.77;1.67;;;;;;;6.19;100.00;62632.09;5010108;28;20219;-80
2023/03/01 00:59:12;;;;;;;1.60;1.50;;;;;;;6.09;100.00;62627.34;5010522;28;20211;-81
2023/03/01 01:01:40;;;;;;;1.70;1.60;;;;;;;6.08;100.00;62623.28;5010444;28;20219;-80
2023/03/01 01:04:08;;;;;;;1.88;1.70;;;;;;;6.12;100.00;62627.94;5010897;28;20225;-80
2023/03/01 01:06:37;;;;;;;1.80;1.70;;;;;;;5.96;100.00;62608.41;5018585;28;20215;-80
2023/03/01 01:09:06;;;;;;;1.05;1.05;;;;;;;5.98;100.00;62613.50;5033911;28;20199;-80
2023/03/01 01:11:35;;;;;;;1.27;1.20;;;;;;;5.77;100.00;62586.78;5030246;28;20241;-82
2023/03/01 01:14:02;;;;;;;1.30;1.30;;;;;;;5.65;100.00;62577.47;5029745;28;20206;-82
2023/03/01 01:16:31;;;;;;;1.30;1.20;;;;;;;5.55;100.00;62572.22;5029440;28;20230;-82
2023/03/01 01:18:58;;;;;;;1.10;1.10;;;;;;;5.41;100.00;62557.28;5017984;28;20235;-82
2023/03/01 01:21:26;;;;;;;0.90;0.90;;;;;;;5.17;100.00;62530.03;5013903;28;20237;-80
2023/03/01 01:23:54;;;;;;;1.00;1.00;;;;;;;5.24;100.00;62530.19;5029123;28;20363;-81
2023/03/01 01:26:24;;;;;;;1.10;1.10;;;;;;;5.30;100.00;62545.94;5011991;28;20468;-81
2023/03/01 01:28:51;;;;;;;1.20;1.20;;;;;;;5.27;100.00;62543.38;5010356;28;20195;-82
2023/03/01 01:31:19;;;;;;;2.17;2.08;;;;;;;5.32;100.00;62540.44;5020813;28;20230;-80
2023/03/01 01:33:48;;;;;;;3.00;2.80;;;;;;;5.20;100.00;62533.63;5023362;28;20202;-82
2023/03/01 01:36:15;;;;;;;4.20;3.80;;;;;;;5.20;100.00;62530.59;5027997;28;20374;-81
2023/03/01 01:38:43;;;;;;;4.05;3.75;;;;;;;5.16;100.00;62529.50;5028521;28;20191;-82
2023/03/01 01:41:12;;;;;;;3.75;3.42;;;;;;;5.16;100.00;62529.00;5010821;28;20234;-81
2023/03/01 01:43:41;;;;;;;2.67;2.50;;;;;;;5.12;100.00;62519.84;5009249;28;20218;-82
2023/03/01 01:46:21;;;;;;;2.17;2.08;;;;;;;5.24;100.00;62534.72;5009952;28;20219;-82
2023/03/01 01:48:54;;;;;;;2.08;1.98;;;;;;;5.31;100.00;62541.94;5016051;28;20198;-83
2023/03/01 01:51:25;;;;;;;1.63;1.52;;;;;;;5.19;100.00;62535.13;5028948;28;20230;-81
2023/03/01 01:53:55;;;;;;;1.50;1.50;;;;;;;5.27;100.00;62535.28;5028397;28;20202;-83
2023/03/01 01:56:25;;;;;;;1.52;1.42;;;;;;;5.28;100.00;62541.38;5030972;28;20403;-80
2023/03/01 01:58:52;;;;;;;1.10;1.10;;;;;;;5.25;100.00;62540.78;5027297;28;20205;-80
2023/03/01 02:01:19;;;;;;;1.40;1.40;;;;;;;5.42;100.00;62553.25;5027817;28;20230;-80
2023/03/01 02:03:47;;;;;;;1.50;1.40;;;;;;;5.42;100.00;62556.28;5028048;28;20222;-81
2023/03/01 02:06:21;;;;;;;1.63;1.55;;;;;;;5.37;100.00;62548.63;5027784;28;20312;-80
2023/03/01 02:08:50;;;;;;;2.33;2.22;;;;;;;5.22;100.00;62535.69;5028805;28;20191;-81
2023/03/01 02:11:19;;;;;;;2.60;2.40;;;;;;;5.26;100.00;62539.81;5030702;28;20245;-80
2023/03/01 02:13:49;;;;;;;2.47;1.92;;;;;;;5.09;100.00;62517.25;5030907;28;20472;-81
2023/03/01 02:16:17;;;;;;;3.08;2.88;;;;;;;5.22;100.00;62535.69;5027154;28;20233;-81
2023/03/01 02:18:45;;;;;;;3.15;2.95;;;;;;;5.15;100.00;62527.97;5029103;28;20203;-81
2023/03/01 02:21:35;;;;;;;3.03;2.83;;;;;;;5.25;100.00;62538.78;5029648;28;20228;-80
2023/03/01 02:24:17;;;;;;;2.10;2.00;;;;;;;5.19;100.00;62532.09;5029196;28;20253;-81
2023/03/01 02:26:49;;;;;;;2.65;2.45;;;;;;;5.32;100.00;62542.94;5011301;28;20223;-79
2023/03/01 02:29:18;;;;;;;2.80;2.60;;;;;;;5.40;100.00;62554.22;5030431;28;20209;-83
2023/03/01 02:31:45;;;;;;;2.65;2.55;;;;;;;5.28;100.00;62541.38;5027257;28;20715;-80
2023/03/01 02:34:15;;;;;;;2.47;2.38;;;;;;;5.40;100.00;62553.72;5018785;28;20219;-82
2023/03/01 02:36:48;;;;;;;2.13;2.03;;;;;;;5.38;100.00;62554.19;5018171;28;20261;-80
2023/03/01 02:39:18;;;;;;;2.58;2.47;;;;;;;5.31;100.00;62539.41;5029458;28;20194;-81
2023/03/01 02:41:49;;;;;;;2.85;2.65;;;;;;;5.39;100.00;62550.69;5030631;28;20219;-81
2023/03/01 02:44:19;;;;;;;2.00;1.95;;;;;;;5.43;100.00;62554.28;5013336;28;20199;-81
2023/03/01 02:46:48;;;;;;;2.50;2.40;;;;;;;5.58;100.00;62572.78;5022512;28;20222;-81
2023/03/01 02:49:24;;;;;;;3.30;3.10;;;;;;;5.63;100.00;62577.41;5028845;28;20401;-80
2023/03/01 02:52:24;;;;;;;2.65;2.50;;;;;;;5.70;100.00;62585.16;5028146;28;20230;-82
2023/03/01 02:54:59;;;;;;;3.00;2.80;;;;;;;5.69;100.00;62583.59;5004225;28;20266;-81
2023/03/01 02:57:28;;;;;;;2.63;2.53;;;;;;;5.67;100.00;62579.53;5009743;28;20286;-81
2023/03/01 03:00:01;;;;;;;3.20;3.00;;;;;;;5.74;100.00;62584.22;5011583;28;20222;-81
2023/03/01 03:02:37;;;;;;;3.17;2.97;;;;;;;5.85;100.00;62600.63;5007922;28;20227;-82
2023/03/01 03:05:10;;;;;;;3.28;3.08;;;;;;;5.93;100.00;62610.88;5006832;28;20453;-82
2023/03/01 03:07:39;;;;;;;2.80;2.60;;;;;;;5.74;100.00;62586.75;5008417;28;20234;-81
2023/03/01 03:10:08;;;;;;;3.22;3.03;;;;;;;5.56;100.00;62570.72;5019909;28;20207;-80
2023/03/01 03:12:35;;;;;;;3.17;2.97;;;;;;;5.73;100.00;62588.22;5025864;28;20527;-82
2023/03/01 03:15:08;;;;;;;3.35;3.15;;;;;;;5.76;100.00;62591.31;5017933;28;20216;-82
2023/03/01 03:17:36;;;;;;;4.05;3.65;;;;;;;5.80;100.00;62592.41;5033143;28;20226;-81
2023/03/01 03:20:05;;;;;;;3.97;3.45;;;;;;;5.65;100.00;62582.53;5014536;28;20227;-81
2023/03/01 03:22:33;;;;;;;3.00;2.80;;;;;;;5.75;100.00;62589.78;5021711;28;20226;-80
2023/03/01 03:25:01;;;;;;;3.15;2.95;;;;;;;5.73;100.00;62585.19;5033759;28;20198;-80
2023/03/01 03:27:29;;;;;;;3.60;3.40;;;;;;;5.81;100.00;62596.50;5031853;28;20235;-80
2023/03/01 03:29:58;;;;;;;3.50;3.20;;;;;;;5.65;100.00;62580.00;5034283;28;20190;-81
2023/03/01 03:32:27;;;;;;;3.38;3.17;;;;;;;5.74;100.00;62588.75;5029968;28;20238;-81
2023/03/01 03:34:53;;;;;;;2.90;2.70;;;;;;;5.78;100.00;62595.91;5029726;28;20225;-81
2023/03/01 03:40:15;;;;;;;2.53;2.33;;;;;;;5.70;100.00;62587.66;5020577;28;20497;-81
2023/03/01 03:42:41;;;;;;;3.20;3.00;;;;;;;5.92;100.00;62606.81;5031684;28;20285;-81
2023/03/01 03:45:09;;;;;;;3.35;3.05;;;;;;;5.81;100.00;62601.03;5033336;28;20198;-81
2023/03/01 03:47:38;;;;;;;3.42;2.83;;;;;;;5.82;100.00;62595.00;5027995;28;20261;-82
2023/03/01 03:50:05;;;;;;;3.88;3.42;;;;;;;5.88;100.00;62606.22;5026793;28;20202;-82
2023/03/01 03:52:32;;;;;;;3.17;2.97;;;;;;;5.69;100.00;62583.59;5030303;28;20292;-82
2023/03/01 03:54:59;;;;;;;3.63;3.13;;;;;;;5.68;100.00;62580.56;5031180;28;20300;-82
2023/03/01 04:00:48;;;;;;;3.70;3.40;;;;;;;5.53;100.00;62567.13;5032546;28;20225;-81
2023/03/01 04:03:18;;;;;;;5.65;3.40;;;;;;;5.47;100.00;62558.41;5031102;28;20222;-81
2023/03/01 04:05:46;;;;;;;2.80;2.63;;;;;;;5.57;100.00;62569.22;5029775;28;20274;-82
2023/03/01 04:08:13;;;;;;;2.92;2.72;;;;;;;5.56;100.00;62570.19;5017536;28;20210;-80
2023/03/01 04:10:43;;;;;;;2.97;2.78;;;;;;;5.57;100.00;62571.75;5029267;28;20202;-82
2023/03/01 04:13:14;;;;;;;3.10;2.90;;;;;;;5.55;100.00;62567.19;5031026;28;20238;-83
2023/03/01 04:15:42;;;;;;;3.15;2.85;;;;;;;5.48;100.00;62562.47;5030710;28;20198;-81
2023/03/01 04:18:13;;;;;;;3.20;3.00;;;;;;;5.51;100.00;62562.53;5010122;28;20230;-81
2023/03/01 04:20:42;;;;;;;2.97;2.75;;;;;;;5.42;100.00;62556.28;5010552;28;20194;-81
2023/03/01 04:23:13;;;;;;;3.15;2.85;;;;;;;5.34;100.00;62545.00;5025125;28;20229;-81
2023/03/01 04:25:41;;;;;;;3.47;3.15;;;;;;;5.45;100.00;62561.41;5027977;28;20263;-80
2023/03/01 04:28:08;;;;;;;4.85;3.55;;;;;;;5.34;100.00;62550.59;5028917;28;20438;-81
2023/03/01 04:30:36;;;;;;;4.40;3.00;;;;;;;5.56;100.00;62570.19;5029818;28;20261;-81
2023/03/01 04:33:05;;;;;;;3.20;3.00;;;;;;;5.63;100.00;62577.94;5028828;28;20238;-82
2023/03/01 04:35:32;;;;;;;4.13;2.97;;;;;;;5.66;100.00;62580.53;5021971;28;20222;-80
2023/03/01 04:38:01;;;;;;;3.15;2.95;;;;;;;5.44;100.00;62557.84;5026669;28;20222;-80
2023/03/01 04:40:28;;;;;;;2.70;2.50;;;;;;;5.33;100.00;62541.97;5028894;28;20245;-80
2023/03/01 04:42:55;;;;;;;3.30;3.10;;;;;;;5.38;100.00;62549.66;5032031;28;20219;-80
2023/03/01 04:45:23;;;;;;;3.95;3.45;;;;;;;5.13;100.00;62528.94;5012472;28;20195;-80
2023/03/01 04:47:51;;;;;;;3.05;2.85;;;;;;;5.28;100.00;62544.41;5010628;28;20219;-80
2023/03/01 04:50:21;;;;;;;3.25;3.00;;;;;;;5.53;100.00;62564.59;5022797;28;20233;-79
2023/03/01 04:52:49;;;;;;;3.97;3.67;;;;;;;5.41;100.00;62547.69;5027253;28;20510;-79
2023/03/01 04:55:17;;;;;;;3.95;3.35;;;;;;;5.21;100.00;62534.66;5027458;28;20245;-79
2023/03/01 04:57:45;;;;;;;4.47;3.08;;;;;;;5.33;100.00;62544.00;5030411;28;20234;-80
2023/03/01 05:03:00;;;;;;;2.75;2.55;;;;;;;5.30;100.00;62540.88;5024809;28;20226;-80
2023/03/01 05:05:29;;;;;;;3.25;2.95;;;;;;;5.15;100.00;62525.44;5028899;28;20289;-79
2023/03/01 05:07:58;;;;;;;3.42;3.22;;;;;;;5.20;100.00;62535.63;5030135;28;20265;-79
2023/03/01 05:10:29;;;;;;;3.70;3.45;;;;;;;5.29;100.00;62537.88;5027286;28;20199;-79
2023/03/01 05:12:57;;;;;;;3.35;3.00;;;;;;;5.30;100.00;62540.88;5032675;28;20238;-80
2023/03/01 05:15:25;;;;;;;3.45;3.15;;;;;;;5.39;100.00;62550.69;5029571;28;20301;-80
2023/03/01 05:17:52;;;;;;;3.33;3.13;;;;;;;5.50;100.00;62562.03;5028690;28;20523;-80
2023/03/01 05:20:22;;;;;;;2.88;2.67;;;;;;;5.59;100.00;62573.31;5027087;28;20202;-81
2023/03/01 05:22:49;;;;;;;2.85;2.40;;;;;;;5.53;100.00;62567.13;5030411;28;20222;-79
2023/03/01 05:25:16;;;;;;;3.53;2.10;;;;;;;5.66;100.00;62581.03;5025014;28;20321;-80
2023/03/01 05:27:45;;;;;;;2.60;2.40;;;;;;;5.67;100.00;62586.59;5028232;28;20245;-80
2023/03/01 05:30:17;;;;;;;2.28;2.10;;;;;;;5.82;100.00;62595.00;5029716;28;20202;-79
2023/03/01 05:32:47;;;;;;;2.72;2.50;;;;;;;5.76;100.00;62590.81;5030932;28;20237;-81
2023/03/01 05:35:16;;;;;;;3.83;2.75;;;;;;;5.80;100.00;62592.91;5018039;28;20209;-80
2023/03/01 05:37:45;;;;;;;3.63;2.10;;;;;;;5.79;100.00;62593.91;5029225;28;20250;-80
2023/03/01 05:40:16;;;;;;;2.53;1.52;;;;;;;5.95;100.00;62607.91;5029335;28;20199;-81
2023/03/01 05:42:50;;;;;;;2.03;1.83;;;;;;;6.02;100.00;62614.59;5025120;28;20223;-82
2023/03/01 05:45:17;;;;;;;1.00;1.00;;;;;;;5.97;100.00;62609.44;5017214;28;20230;-83
2023/03/01 05:47:46;;;;;;;1.42;1.33;;;;;;;5.75;100.00;62587.78;5032185;28;20215;-80
2023/03/01 05:50:18;;;;;;;4.35;3.95;;;;;;;5.81;100.00;62596.50;5028597;28;20495;-81
2023/03/01 05:52:46;;;;;;;1.98;1.88;;;;;;;5.93;100.00;62605.81;5029142;28;20234;-81
2023/03/01 05:55:13;;;;;;;2.00;1.90;;;;;;;5.71;100.00;62585.66;5027505;28;20279;-81
2023/03/01 05:57:40;;;;;;;1.20;1.20;;;;;;;5.59;100.00;62570.78;5022791;28;20251;-81
2023/03/01 06:00:12;;;;;;;1.15;1.15;;;;;;;5.70;100.00;62582.09;5023597;28;20213;-79
2023/03/01 06:02:39;;;;;;;0.95;0.95;;;;;;;5.75;100.00;62587.78;5014011;28;20231;-80
2023/03/01 06:05:07;;;;;;;1.60;1.50;;;;;;;5.70;100.00;62584.63;5015364;28;20195;-83
2023/03/01 06:07:37;;;;;;;1.40;1.30;;;;;;;5.84;100.00;62594.03;5010873;28;20231;-81
2023/03/01 06:10:06;;;;;;;1.13;1.13;;;;;;;5.88;100.00;62606.22;5025248;28;20199;-80
2023/03/01 06:12:33;;;;;;;1.38;0.88;;;;;;;5.91;100.00;62608.28;5014854;28;20287;-81
2023/03/01 06:15:00;;;;;;;1.00;1.00;;;;;;;6.08;100.00;62626.34;5019112;28;20199;-80
2023/03/01 06:17:31;;;;;;;1.20;1.10;;;;;;;6.00;100.00;62615.06;5020275;28;20215;-82
2023/03/01 06:19:57;;;;;;;2.20;1.17;;;;;;;6.11;100.00;62628.94;5030186;28;20262;-81
2023/03/01 06:22:24;;;;;;;0.88;0.88;;;;;;;6.22;100.00;62635.19;5016608;28;20214;-81
2023/03/01 06:24:52;;;;;;;0.98;0.98;;;;;;;6.39;100.00;62658.28;5020053;28;20206;-82
2023/03/01 06:27:19;;;;;;;1.00;1.00;;;;;;;6.31;100.00;62647.00;5008637;28;20238;-80
2023/03/01 06:29:45;;;;;;;1.17;1.10;;;;;;;6.42;100.00;62658.34;5020958;28;20202;-81
2023/03/01 06:32:12;;;;;;;1.10;1.00;;;;;;;6.34;100.00;62648.09;5014867;28;20223;-81
2023/03/01 06:34:41;;;;;;;1.27;1.25;;;;;;;6.57;100.00;62673.81;5015663;28;20211;-82
2023/03/01 06:37:08;;;;;;;0.80;0.80;;;;;;;6.44;100.00;62660.91;5023187;28;20272;-80
2023/03/01 06:39:39;;;;;;;1.67;0.98;;;;;;;6.39;100.00;62655.25;5028411;28;20194;-82
2023/03/01 06:42:06;;;;;;;1.40;1.30;;;;;;;6.26;100.00;62642.38;5027507;28;20297;-81
2023/03/01 06:44:33;;;;;;;1.17;1.17;;;;;;;6.35;100.00;62651.63;5020389;28;20199;-81
2023/03/01 06:47:00;;;;;;;1.75;1.65;;;;;;;6.49;100.00;62663.53;5025362;28;20223;-81
2023/03/01 06:49:28;;;;;;;1.38;1.33;;;;;;;6.54;100.00;62668.19;5020181;28;20199;-83
2023/03/01 06:51:57;;;;;;;1.65;1.55;;;;;;;6.44;100.00;62662.94;5020377;28;20294;-81
2023/03/01 06:54:24;;;;;;;1.98;1.60;;;;;;;6.85;100.00;62700.16;5025065;28;20288;-80
2023/03/01 06:59:25;;;;;;;1.25;1.20;;;;;;;6.79;100.00;62699.03;5185427;23;20244;-82
2023/03/01 07:02:01;;;;;;;1.45;1.40;;;;;;;6.98;100.00;62713.56;5029332;28;20235;-84
2023/03/01 07:04:30;;;;;;;1.58;1.48;;;;;;;7.09;100.00;62724.41;5029786;28;20206;-79
2023/03/01 07:06:59;;;;;;;1.40;1.30;;;;;;;7.46;100.00;62762.56;5025796;28;20230;-81
2023/03/01 07:09:26;;;;;;;1.10;1.10;;;;;;;7.48;100.00;62765.16;5024887;28;20211;-80
2023/03/01 07:11:52;;;;;;;1.15;1.15;;;;;;;7.19;100.00;62737.78;5012341;28;20227;-80
2023/03/01 07:14:20;;;;;;;1.20;1.20;;;;;;;7.33;100.00;62752.22;5017584;28;20266;-79
2023/03/01 07:16:47;;;;;;;1.98;1.50;;;;;;;7.52;100.00;62773.84;5016803;28;20231;-79
2023/03/01 07:19:14;;;;;;;1.08;1.02;;;;;;;7.63;100.00;62780.63;5012767;28;20462;-80
2023/03/01 07:21:40;;;;;;;1.55;1.45;;;;;;;7.90;100.00;62813.06;5010668;28;20389;-81
2023/03/01 07:24:09;;;;;;;1.00;1.00;;;;;;;7.74;100.00;62796.56;5021217;28;20198;-81
2023/03/01 07:26:36;;;;;;;1.17;1.17;;;;;;;8.01;100.00;62819.88;5016767;28;20283;-80
2023/03/01 07:29:06;;;;;;;1.10;1.10;;;;;;;8.04;100.00;62825.50;5023096;28;20511;-79
2023/03/01 07:31:33;;;;;;;1.60;1.50;;;;;;;8.01;100.00;62824.94;5023841;28;20317;-80
2023/03/01 07:34:00;;;;;;;1.50;1.40;;;;;;;8.12;100.00;62833.25;5015128;28;20269;-80
2023/03/01 07:36:27;;;;;;;1.38;1.38;;;;;;;8.23;100.00;62844.63;5016864;28;20261;-79
2023/03/01 07:38:55;;;;;;;3.92;2.00;;;;;;;7.93;100.00;62814.16;5017916;28;20227;-79
2023/03/01 07:41:23;;;;;;;2.10;2.00;;;;;;;7.95;100.00;62813.16;5014995;28;20218;-79
2023/03/01 07:43:50;;;;;;;3.42;3.22;;;;;;;7.78;100.00;62801.19;5026240;28;20218;-79
2023/03/01 07:46:18;;;;;;;6.85;5.30;;;;;;;7.42;100.00;62753.41;5018291;28;20218;-80
2023/03/01 07:48:46;;;;;;;2.72;2.53;;;;;;;7.40;100.00;62761.47;5022170;28;20196;-78
2023/03/01 07:51:13;;;;;;;1.95;1.85;;;;;;;7.42;100.00;62758.47;4999508;28;20228;-80
2023/03/01 07:53:40;;;;;;;1.98;1.88;;;;;;;7.46;100.00;62763.09;5004971;28;20234;-80
2023/03/01 07:56:09;;;;;;;1.70;1.60;;;;;;;7.61;100.00;62781.09;5016412;28;20219;-81
2023/03/01 07:58:39;;;;;;;2.90;1.65;;;;;;;7.67;100.00;62786.78;5012244;28;20231;-80
2023/03/01 08:01:08;;;;;;;1.63;1.52;;;;;;;7.78;100.00;62801.19;5012386;28;20270;-81
2023/03/01 08:03:35;;;;;;;3.28;3.08;;;;;;;7.68;100.00;62787.84;5013874;28;20199;-83
2023/03/01 08:06:03;;;;;;;3.10;2.80;;;;;;;7.53;100.00;62769.81;5013579;28;20286;-82
2023/03/01 08:08:31;;;;;;;2.30;2.10;;;;;;;7.13;100.00;62728.53;5008202;28;20192;-79
2023/03/01 08:11:00;;;;;;;2.00;1.90;;;;;;;6.90;100.00;62708.34;5010698;28;20234;-82
2023/03/01 08:13:27;;;;;;;2.45;2.35;;;;;;;7.44;100.00;62763.56;4995155;28;20224;-80
2023/03/01 08:15:55;;;;;;;2.80;2.60;;;;;;;7.06;100.00;62723.84;4998663;28;20622;-81
2023/03/01 08:18:23;;;;;;;2.90;2.70;;;;;;;7.02;100.00;62715.16;5010089;28;20203;-80
2023/03/01 08:20:49;;;;;;;2.47;2.38;;;;;;;7.00;100.00;62718.16;5011456;28;20200;-82
2023/03/01 08:23:16;;;;;;;2.25;2.15;;;;;;;7.26;100.00;62742.47;5015248;28;20270;-82
2023/03/01 08:25:43;;;;;;;2.97;2.80;;;;;;;7.48;100.00;62772.25;5011571;28;20210;-81
2023/03/01 08:28:10;;;;;;;2.97;2.75;;;;;;;7.60;100.00;62777.53;5010254;28;20199;-80
2023/03/01 08:30:37;;;;;;;2.72;2.53;;;;;;;7.77;100.00;62797.09;5013098;28;20210;-79
2023/03/01 08:33:06;;;;;;;2.97;2.78;;;;;;;7.95;100.00;62813.69;5009812;28;20224;-81
2023/03/01 08:35:33;;;;;;;3.25;3.00;;;;;;;7.89;100.00;62809.50;4996205;28;20551;-79
2023/03/01 08:38:00;;;;;;;2.42;2.30;;;;;;;8.09;100.00;62832.69;4995746;28;20220;-81
2023/03/01 08:40:27;;;;;;;3.13;2.80;;;;;;;8.09;100.00;62830.16;4993778;28;20196;-80
2023/03/01 08:42:54;;;;;;;2.95;2.75;;;;;;;8.40;100.00;62861.69;4994070;28;20215;-81
2023/03/01 08:45:21;;;;;;;2.47;2.28;;;;;;;8.44;100.00;62868.84;4998674;28;20199;-81
2023/03/01 08:47:48;;;;;;;2.53;2.33;;;;;;;8.82;99.28;62905.56;5016672;28;20227;-81
2023/03/01 08:50:16;;;;;;;2.17;2.08;;;;;;;8.83;97.07;62903.56;5012206;28;20522;-80
2023/03/01 08:52:43;;;;;;;2.33;2.22;;;;;;;8.79;97.02;62901.97;5012680;28;20242;-82
2023/03/01 08:55:10;;;;;;;2.33;2.10;;;;;;;8.63;96.16;62883.41;5009645;28;20235;-80
2023/03/01 08:57:37;;;;;;;2.05;1.95;;;;;;;8.73;97.15;62898.31;4992773;28;20228;-80
2023/03/01 09:00:08;;;;;;;3.28;3.08;;;;;;;8.77;97.61;62902.44;4993407;28;20208;-81
2023/03/01 09:02:35;;;;;;;5.00;4.10;;;;;;;8.38;97.71;62860.13;4992076;28;20224;-82
2023/03/01 09:05:02;;;;;;;2.88;2.67;;;;;;;8.07;100.00;62828.09;4993232;28;20403;-80
2023/03/01 09:07:30;;;;;;;4.07;3.78;;;;;;;8.49;98.89;62871.47;5007825;28;20271;-80
2023/03/01 09:09:57;;;;;;;3.88;3.50;;;;;;;8.28;100.00;62846.75;5010355;28;20196;-80
2023/03/01 09:12:24;;;;;;;4.40;3.42;;;;;;;8.63;98.80;62883.41;5003834;28;20411;-82
2023/03/01 09:14:51;;;;;;;2.72;2.53;;;;;;;8.62;98.64;62884.91;5001203;28;20238;-81
2023/03/01 09:17:21;;;;;;;4.93;3.08;;;;;;;8.79;96.58;62905.03;5007301;28;20231;-81
2023/03/01 09:19:49;;;;;;;3.00;2.80;;;;;;;8.92;96.49;62915.91;5003187;28;20208;-80
2023/03/01 09:22:16;;;;;;;3.45;3.25;;;;;;;9.13;93.83;62935.06;5009422;28;20246;-81
2023/03/01 09:24:44;;;;;;;5.30;2.92;;;;;;;9.17;93.08;62938.69;5009864;28;20202;-81
2023/03/01 09:27:12;;;;;;;3.40;3.10;;;;;;;8.77;94.38;62902.44;5007796;28;20277;-80
2023/03/01 09:29:39;;;;;;;4.60;3.88;;;;;;;8.73;95.73;62896.28;5011394;28;20202;-82
2023/03/01 09:32:07;;;;;;;2.95;2.60;;;;;;;8.86;95.50;62906.66;4990995;28;20250;-82
2023/03/01 09:35:00;;;;;;;2.28;2.17;;;;;;;8.59;96.42;62881.31;4992400;28;20519;-81
2023/03/01 09:37:25;;;;;;;2.60;2.40;;;;;;;8.45;97.15;62869.38;5009747;28;20234;-81
2023/03/01 09:39:54;;;;;;;2.33;2.13;;;;;;;8.63;97.69;62885.44;5009962;28;20200;-81
2023/03/01 09:42:21;;;;;;;2.90;2.70;;;;;;;8.28;98.64;62854.34;5009532;28;20236;-82
2023/03/01 09:44:52;;;;;;;2.50;2.40;;;;;;;8.44;100.00;62863.28;5010316;28;20204;-80
2023/03/01 09:47:22;;;;;;;2.90;2.53;;;;;;;8.83;97.39;62903.56;5010531;28;20235;-78
2023/03/01 09:49:59;;;;;;;2.38;2.28;;;;;;;8.46;97.43;62868.38;5010157;28;20209;-80
2023/03/01 09:52:34;;;;;;;2.50;2.38;;;;;;;8.69;98.05;62894.69;5008141;28;20227;-81
2023/03/01 09:55:11;;;;;;;2.88;2.72;;;;;;;8.70;96.60;62895.72;5010331;28;20242;-82
2023/03/01 09:57:47;;;;;;;2.45;2.35;;;;;;;8.75;96.42;62900.38;5004497;28;22483;-80
2023/03/01 10:00:23;;;;;;;3.03;2.83;;;;;;;9.10;94.93;62934.00;5005764;28;20218;-81
2023/03/01 10:02:59;;;;;;;3.10;2.90;;;;;;;9.27;94.26;62952.09;5009560;28;20231;-81
2023/03/01 10:05:42;;;;;;;5.32;3.72;;;;;;;9.32;94.19;62961.81;5010452;28;20207;-81
2023/03/01 10:08:36;;;;;;;3.15;2.95;;;;;;;9.59;93.05;62984.66;5009196;28;20199;-80
2023/03/01 10:11:06;;;;;;;2.25;2.15;;;;;;;9.30;92.84;62955.19;5022087;28;20222;-81
2023/03/01 10:13:44;;;;;;;3.13;2.92;;;;;;;9.40;93.20;62962.47;5028979;28;20260;-81
2023/03/01 10:16:16;;;;;;;2.42;2.33;;;;;;;9.03;93.28;62931.84;5015520;28;20223;-80
2023/03/01 10:18:49;;;;;;;2.80;2.60;;;;;;;9.06;96.78;62927.84;5027421;28;20225;-79
2023/03/01 10:21:19;;;;;;;2.83;2.67;;;;;;;9.37;94.67;62959.38;5019328;28;20286;-79
2023/03/01 10:23:50;;;;;;;2.83;2.63;;;;;;;9.49;92.66;62973.81;5017803;28;20266;-81
2023/03/01 10:26:35;;;;;;;3.00;2.80;;;;;;;9.25;94.03;62955.09;5018812;28;20223;-81
2023/03/01 10:29:04;;;;;;;3.40;3.10;;;;;;;8.89;96.31;62912.28;5008811;28;20211;-81
2023/03/01 10:31:40;;;;;;;3.25;2.97;;;;;;;8.37;100.00;62858.59;5020111;28;20215;-80
2023/03/01 10:34:12;;;;;;;3.47;3.03;;;;;;;8.98;99.43;62924.13;5023040;28;20229;-80
2023/03/01 10:36:40;;;;;;;3.20;3.00;;;;;;;9.29;97.14;62954.16;5011829;28;20231;-80
2023/03/01 10:39:15;;;;;;;3.42;3.13;;;;;;;9.62;96.88;62990.31;5009734;28;20213;-81
2023/03/01 10:41:55;;;;;;;2.92;2.72;;;;;;;9.28;96.91;62953.13;5018998;28;20229;-81
2023/03/01 10:44:43;;;;;;;3.35;3.15;;;;;;;9.74;94.98;63002.72;5007991;28;20211;-80
2023/03/01 10:47:17;;;;;;;2.92;2.70;;;;;;;9.87;91.96;63015.66;5005660;28;20265;-80
2023/03/01 10:50:02;;;;;;;3.00;2.80;;;;;;;9.47;92.44;62972.25;5023187;28;20211;-80
2023/03/01 10:52:32;;;;;;;3.05;2.85;;;;;;;9.19;94.81;62943.31;5004401;28;20264;-80
2023/03/01 10:55:01;;;;;;;3.50;3.30;;;;;;;9.24;95.78;62949.00;5010010;28;20247;-79
2023/03/01 10:57:40;;;;;;;4.70;3.45;;;;;;;9.14;95.89;62941.19;5007994;28;20227;-80
2023/03/01 11:00:25;;;;;;;4.80;4.40;;;;;;;9.24;96.51;62945.94;5006060;28;20213;-81
2023/03/01 11:03:11;;;;;;;4.60;3.88;;;;;;;9.41;95.54;62960.44;5006114;28;20219;-80
2023/03/01 11:05:38;;;;;;;4.88;3.97;;;;;;;9.61;92.97;62986.22;5015265;28;20542;-79
2023/03/01 11:08:05;;;;;;;3.47;3.17;;;;;;;9.41;95.18;62968.59;5014808;28;20299;-81
2023/03/01 11:10:35;;;;;;;3.00;2.80;;;;;;;9.83;91.68;63008.97;5006653;28;20199;-80
2023/03/01 11:13:16;;;;;;;3.00;2.80;;;;;;;10.02;89.72;63031.69;5012140;28;20618;-78
2023/03/01 11:15:44;;;;;;;3.05;2.85;;;;;;;10.10;89.78;63036.91;5004389;28;20231;-80
2023/03/01 11:18:21;;;;;;;6.10;3.88;;;;;;;9.74;90.53;62997.63;4989058;28;20200;-81
2023/03/01 11:20:51;;;;;;;5.50;3.92;;;;;;;9.84;90.46;63010.50;4988466;28;20204;-81
2023/03/01 11:23:19;;;;;;;3.53;3.33;;;;;;;9.87;89.42;63010.56;4989722;28;20271;-80
2023/03/01 11:25:52;;;;;;;3.40;3.13;;;;;;;9.37;92.86;62961.91;4992996;28;20208;-79
2023/03/01 11:28:22;;;;;;;3.35;2.85;;;;;;;9.52;91.61;62977.44;4994141;28;20200;-80
2023/03/01 11:30:54;;;;;;;3.20;3.00;;;;;;;8.82;94.70;62908.13;5005942;28;20234;-80
2023/03/01 11:33:32;;;;;;;3.15;2.95;;;;;;;8.68;97.88;62891.09;5008106;28;20209;-80
2023/03/01 11:36:06;;;;;;;3.60;3.30;;;;;;;8.54;98.94;62876.66;5010352;28;20223;-80
2023/03/01 11:38:36;;;;;;;3.70;3.50;;;;;;;8.74;98.96;62896.78;5008648;28;20247;-79
2023/03/01 11:41:09;;;;;;;4.15;3.65;;;;;;;9.20;97.56;62944.84;4994565;28;20266;-80
2023/03/01 11:43:48;;;;;;;3.88;3.58;;;;;;;8.77;97.75;62895.34;4993629;28;20206;-81
2023/03/01 11:46:43;;;;;;;2.92;2.80;;;;;;;8.36;100.00;62860.06;4993850;28;20223;-81
2023/03/01 11:49:30;;;;;;;3.78;3.40;;;;;;;8.69;99.53;62894.16;4994208;28;20216;-79
2023/03/01 11:52:08;;;;;;;4.15;3.78;;;;;;;8.54;100.00;62876.13;4992808;28;20444;-80
2023/03/01 11:54:55;;;;;;;4.03;3.63;;;;;;;8.55;100.00;62879.69;5003883;28;20408;-81
2023/03/01 11:57:39;;;;;;;3.72;3.38;;;;;;;8.19;100.00;62837.94;5013703;28;20227;-81